createdAt,value
2023-04-22T00:00:48.510Z,12.13
2023-04-22T00:03:16.134Z,9.10
2023-04-22T00:05:44.987Z,14.20
2023-04-22T00:08:12.351Z,11.40
2023-04-22T00:10:39.951Z,13.40
2023-04-22T00:13:07.170Z,11.95
2023-04-22T00:15:34.579Z,9.48
2023-04-22T00:18:02.107Z,12.45
2023-04-22T00:20:29.630Z,12.80
2023-04-22T00:22:56.972Z,10.93
2023-04-22T00:25:24.403Z,15.20
2023-04-22T00:27:51.824Z,9.70
2023-04-22T00:30:19.240Z,12.00
2023-04-22T00:32:47.364Z,12.75
2023-04-22T00:35:14.867Z,9.55
2023-04-22T00:37:43.761Z,11.52
2023-04-22T00:40:11.564Z,10.07
2023-04-22T00:42:39.835Z,11.88
2023-04-22T00:45:11.384Z,10.95
2023-04-22T00:47:39.282Z,12.35
2023-04-22T00:50:07.473Z,10.30
2023-04-22T00:52:34.887Z,10.45
2023-04-22T00:55:02.586Z,12.73
2023-04-22T00:57:31.672Z,11.93
2023-04-22T00:59:59.337Z,9.38
2023-04-22T01:02:27.147Z,10.75
2023-04-22T01:04:54.718Z,12.60
2023-04-22T01:07:22.086Z,11.63
2023-04-22T01:09:49.973Z,9.55
2023-04-22T01:12:17.519Z,11.75
2023-04-22T01:14:44.950Z,9.98
2023-04-22T01:17:14.081Z,12.13
2023-04-22T01:19:42.635Z,11.27
2023-04-22T01:22:14.215Z,17.33
2023-04-22T01:24:42.016Z,14.15
2023-04-22T01:27:09.894Z,15.07
2023-04-22T01:29:39.291Z,13.25
2023-04-22T01:32:07.240Z,13.45
2023-04-22T01:34:34.826Z,12.13
2023-04-22T01:37:02.171Z,15.68
2023-04-22T01:39:30.456Z,13.32
2023-04-22T01:41:58.830Z,10.65
2023-04-22T01:44:27.084Z,9.98
2023-04-22T01:46:54.940Z,8.70
2023-04-22T01:49:22.659Z,8.15
2023-04-22T01:51:51.244Z,12.23
2023-04-22T01:54:21.241Z,14.57
2023-04-22T01:56:53.206Z,11.50
2023-04-22T01:59:21.901Z,12.80
2023-04-22T02:01:50.602Z,13.93
2023-04-22T02:04:19.322Z,13.30
2023-04-22T02:06:47.201Z,15.75
2023-04-22T02:09:14.601Z,9.95
2023-04-22T02:11:42.010Z,11.25
2023-04-22T02:14:09.471Z,10.10
2023-04-22T02:16:36.821Z,11.95
2023-04-22T02:19:04.487Z,9.95
2023-04-22T02:21:34.115Z,12.05
2023-04-22T02:24:01.694Z,12.20
2023-04-22T02:26:30.599Z,11.10
2023-04-22T02:28:58.156Z,15.70
2023-04-22T02:31:27.470Z,12.68
2023-04-22T02:33:55.507Z,12.38
2023-04-22T02:36:22.940Z,11.25
2023-04-22T02:38:50.823Z,13.00
2023-04-22T02:41:18.091Z,8.90
2023-04-22T02:43:46.276Z,11.20
2023-04-22T02:46:16.375Z,12.18
2023-04-22T02:48:44.202Z,11.57
2023-04-22T02:51:11.987Z,12.02
2023-04-22T02:53:39.412Z,11.73
2023-04-22T02:56:07.199Z,16.67
2023-04-22T02:58:35.229Z,14.63
2023-04-22T03:01:02.669Z,13.05
2023-04-22T03:03:30.459Z,12.90
2023-04-22T03:05:58.424Z,14.82
2023-04-22T03:08:26.499Z,12.63
2023-04-22T03:10:53.901Z,12.30
2023-04-22T03:13:23.057Z,13.35
2023-04-22T03:15:51.764Z,11.75
2023-04-22T03:18:20.076Z,10.75
2023-04-22T03:20:47.738Z,13.85
2023-04-22T03:23:15.566Z,13.20
2023-04-22T03:25:43.135Z,11.90
2023-04-22T03:28:10.772Z,14.25
2023-04-22T03:30:38.103Z,14.27
2023-04-22T03:33:05.776Z,15.20
2023-04-22T03:35:34.733Z,16.58
2023-04-22T03:38:02.570Z,14.00
2023-04-22T03:40:33.662Z,19.27
2023-04-22T03:43:05.260Z,14.18
2023-04-22T03:45:33.017Z,12.23
2023-04-22T03:48:01.938Z,11.90
2023-04-22T03:50:38.051Z,16.38
2023-04-22T03:53:05.736Z,13.32
2023-04-22T03:55:33.550Z,18.23
2023-04-22T03:58:01.755Z,15.63
2023-04-22T04:00:30.131Z,13.18
2023-04-22T04:03:08.347Z,16.58
2023-04-22T04:05:36.715Z,15.90
2023-04-22T04:08:04.189Z,15.52
2023-04-22T04:10:31.658Z,16.70
2023-04-22T04:13:00.509Z,18.17
2023-04-22T04:15:32.660Z,14.90
2023-04-22T04:18:01.496Z,16.98
2023-04-22T04:20:31.735Z,17.38
2023-04-22T04:22:59.776Z,21.77
2023-04-22T04:25:29.437Z,14.55
2023-04-22T04:27:56.969Z,19.25
2023-04-22T04:30:26.112Z,15.68
2023-04-22T04:32:55.505Z,17.17
2023-04-22T04:35:23.945Z,14.95
2023-04-22T04:37:55.592Z,15.45
2023-04-22T04:40:23.655Z,16.92
2023-04-22T04:43:04.550Z,15.73
2023-04-22T04:45:37.897Z,22.13
2023-04-22T04:48:08.152Z,16.25
2023-04-22T04:50:38.408Z,17.67
2023-04-22T04:53:07.297Z,21.33
2023-04-22T04:55:40.338Z,12.85
2023-04-22T04:58:15.138Z,18.42
2023-04-22T05:00:43.001Z,18.92
2023-04-22T05:03:11.162Z,17.73
2023-04-22T05:05:39.733Z,15.65
2023-04-22T05:08:07.362Z,17.33
2023-04-22T05:10:37.572Z,18.20
2023-04-22T05:13:05.105Z,23.92
2023-04-22T05:15:33.440Z,19.80
2023-04-22T05:18:00.988Z,18.70
2023-04-22T05:20:28.534Z,24.15
2023-04-22T05:22:56.724Z,14.75
2023-04-22T05:25:24.252Z,14.55
2023-04-22T05:27:58.939Z,18.98
2023-04-22T05:30:30.492Z,19.40
2023-04-22T05:32:57.930Z,17.85
2023-04-22T05:35:25.395Z,19.40
2023-04-22T05:37:53.285Z,18.02
2023-04-22T05:40:20.865Z,21.08
2023-04-22T05:42:48.373Z,15.32
2023-04-22T05:45:15.935Z,15.82
2023-04-22T05:47:43.581Z,21.65
2023-04-22T05:50:11.478Z,17.85
2023-04-22T05:52:40.823Z,15.25
2023-04-22T05:55:13.344Z,12.43
2023-04-22T05:57:40.769Z,16.73
2023-04-22T06:00:18.973Z,16.75
2023-04-22T06:02:59.317Z,13.93
2023-04-22T06:05:27.015Z,17.27
2023-04-22T06:07:54.520Z,19.13
2023-04-22T06:10:21.892Z,16.05
2023-04-22T06:12:49.241Z,13.43
2023-04-22T06:15:16.824Z,20.58
2023-04-22T06:17:44.837Z,14.88
2023-04-22T06:20:13.261Z,18.98
2023-04-22T06:22:40.631Z,15.93
2023-04-22T06:25:09.775Z,13.02
2023-04-22T06:27:38.272Z,15.18
2023-04-22T06:30:07.087Z,13.43
2023-04-22T06:32:34.404Z,15.32
2023-04-22T06:35:02.798Z,14.95
2023-04-22T06:37:30.059Z,12.23
2023-04-22T06:39:57.562Z,15.05
2023-04-22T06:45:29.010Z,17.17
2023-04-22T06:48:11.681Z,17.40
2023-04-22T06:50:58.980Z,15.38
2023-04-22T06:53:27.631Z,18.45
2023-04-22T06:55:54.958Z,15.80
2023-04-22T06:58:22.429Z,18.48
2023-04-22T07:00:50.490Z,17.33
2023-04-22T07:03:17.959Z,16.92
2023-04-22T07:05:53.659Z,18.05
2023-04-22T07:08:21.129Z,16.60
2023-04-22T07:10:48.518Z,21.17
2023-04-22T07:13:17.488Z,19.35
2023-04-22T07:15:46.302Z,16.40
2023-04-22T07:18:13.850Z,18.88
2023-04-22T07:20:41.255Z,17.52
2023-04-22T07:23:08.651Z,17.55
2023-04-22T07:25:36.072Z,19.73
2023-04-22T07:28:03.579Z,19.70
2023-04-22T07:30:30.919Z,14.98
2023-04-22T07:32:58.405Z,16.73
2023-04-22T07:35:25.878Z,17.75
2023-04-22T07:37:53.246Z,14.73
2023-04-22T07:40:20.789Z,14.07
2023-04-22T07:42:48.246Z,13.77
2023-04-22T07:45:15.577Z,19.30
2023-04-22T07:47:42.990Z,16.42
2023-04-22T07:50:10.878Z,17.15
2023-04-22T07:52:38.227Z,16.65
2023-04-22T07:55:06.435Z,15.30
2023-04-22T07:57:38.724Z,14.70
2023-04-22T08:00:08.060Z,14.80
2023-04-22T08:02:36.983Z,18.73
2023-04-22T08:05:04.808Z,20.73
2023-04-22T08:07:33.530Z,18.40
2023-04-22T08:10:01.403Z,17.38
2023-04-22T08:12:28.875Z,15.02
2023-04-22T08:14:58.120Z,20.08
2023-04-22T08:17:25.780Z,15.77
2023-04-22T08:19:53.400Z,14.25
2023-04-22T08:22:20.781Z,16.50
2023-04-22T08:24:48.125Z,16.38
2023-04-22T08:27:15.510Z,16.48
2023-04-22T08:29:43.384Z,16.55
2023-04-22T08:32:11.050Z,17.23
2023-04-22T08:34:39.023Z,14.90
2023-04-22T08:37:06.623Z,19.33
2023-04-22T08:39:34.006Z,14.63
2023-04-22T08:42:02.466Z,12.23
2023-04-22T08:44:30.522Z,10.38
2023-04-22T08:46:59.975Z,11.75
2023-04-22T08:49:30.953Z,11.60
2023-04-22T08:51:58.333Z,11.85
2023-04-22T08:54:26.096Z,9.93
2023-04-22T08:56:54.625Z,12.50
2023-04-22T08:59:23.665Z,10.60
2023-04-22T09:01:54.446Z,14.25
2023-04-22T09:04:22.345Z,12.90
2023-04-22T09:06:49.630Z,8.73
2023-04-22T09:09:17.621Z,11.20
2023-04-22T09:11:44.852Z,13.32
2023-04-22T09:14:12.146Z,14.10
2023-04-22T09:16:43.147Z,11.73
2023-04-22T09:19:13.266Z,10.10
2023-04-22T09:21:41.808Z,13.30
2023-04-22T09:24:11.328Z,10.20
2023-04-22T09:26:41.659Z,10.35
2023-04-22T09:29:14.627Z,10.20
2023-04-22T09:31:42.348Z,10.95
2023-04-22T09:34:09.795Z,11.45
2023-04-22T09:36:38.000Z,9.77
2023-04-22T09:39:08.424Z,9.52
2023-04-22T09:41:38.838Z,7.85
2023-04-22T09:44:11.332Z,9.18
2023-04-22T09:46:41.912Z,8.65
2023-04-22T09:49:09.436Z,8.93
2023-04-22T09:51:41.270Z,10.55
2023-04-22T09:54:10.734Z,7.70
2023-04-22T09:56:41.476Z,9.13
2023-04-22T09:59:09.192Z,12.90
2023-04-22T10:01:39.735Z,10.05
2023-04-22T10:04:10.205Z,9.75
2023-04-22T10:06:38.112Z,7.10
2023-04-22T10:09:07.501Z,8.00
2023-04-22T10:11:37.901Z,11.05
2023-04-22T10:14:05.474Z,9.07
2023-04-22T10:16:34.849Z,7.45
2023-04-22T10:19:05.693Z,9.63
2023-04-22T10:21:33.785Z,7.40
2023-04-22T10:24:01.289Z,11.88
2023-04-22T10:26:31.766Z,9.15
2023-04-22T10:28:58.992Z,8.32
2023-04-22T10:31:26.308Z,6.97
2023-04-22T10:34:11.613Z,8.07
2023-04-22T10:36:42.905Z,9.30
2023-04-22T10:39:16.025Z,8.93
2023-04-22T10:41:52.075Z,9.15
2023-04-22T10:44:22.952Z,6.57
2023-04-22T10:46:57.328Z,8.55
2023-04-22T10:49:29.332Z,6.05
2023-04-22T10:51:59.638Z,7.90
2023-04-22T10:54:59.767Z,8.63
2023-04-22T10:57:38.408Z,8.52
2023-04-22T11:00:31.027Z,7.43
2023-04-22T11:03:08.445Z,8.68
2023-04-22T11:05:36.355Z,7.43
2023-04-22T11:08:08.413Z,9.15
2023-04-22T11:10:43.597Z,6.60
2023-04-22T11:13:15.655Z,8.50
2023-04-22T11:15:45.777Z,6.65
2023-04-22T11:18:17.861Z,7.13
2023-04-22T11:20:45.606Z,7.43
2023-04-22T11:23:16.997Z,8.07
2023-04-22T11:25:44.197Z,8.20
2023-04-22T11:28:11.432Z,7.60
2023-04-22T11:30:38.746Z,6.63
2023-04-22T11:33:06.325Z,6.60
2023-04-22T11:35:34.916Z,8.15
2023-04-22T11:38:04.965Z,9.32
2023-04-22T11:40:37.994Z,7.30
2023-04-22T11:43:08.495Z,7.30
2023-04-22T11:45:37.370Z,8.60
2023-04-22T11:48:07.973Z,6.45
2023-04-22T11:50:38.387Z,9.60
2023-04-22T11:53:14.608Z,6.00
2023-04-22T11:55:43.076Z,8.82
2023-04-22T11:58:14.694Z,6.90
2023-04-22T12:00:45.914Z,7.25
2023-04-22T12:03:15.974Z,9.75
2023-04-22T12:05:46.314Z,9.88
2023-04-22T12:08:16.631Z,7.60
2023-04-22T12:10:47.061Z,7.57
2023-04-22T12:13:17.406Z,7.20
2023-04-22T12:15:45.803Z,7.15
2023-04-22T12:18:13.382Z,8.82
2023-04-22T12:20:42.126Z,6.70
2023-04-22T12:23:14.531Z,5.88
2023-04-22T12:25:43.146Z,6.03
2023-04-22T12:28:11.203Z,9.55
2023-04-22T12:30:38.399Z,7.45
2023-04-22T12:33:06.571Z,8.40
2023-04-22T12:35:34.015Z,9.98
2023-04-22T12:38:02.131Z,5.20
2023-04-22T12:40:29.767Z,10.75
2023-04-22T12:42:56.965Z,6.57
2023-04-22T12:45:24.946Z,7.65
2023-04-22T12:47:53.972Z,9.18
2023-04-22T12:50:21.663Z,7.78
2023-04-22T12:52:48.838Z,6.00
2023-04-22T12:55:16.320Z,6.68
2023-04-22T12:57:44.988Z,6.00
2023-04-22T13:00:14.624Z,7.40
2023-04-22T13:02:43.032Z,5.88
2023-04-22T13:05:11.282Z,6.85
2023-04-22T13:07:40.149Z,5.60
2023-04-22T13:10:08.757Z,7.68
2023-04-22T13:12:38.376Z,6.72
2023-04-22T13:15:06.764Z,7.60
2023-04-22T13:17:35.717Z,8.73
2023-04-22T13:20:04.861Z,6.78
2023-04-22T13:22:32.081Z,7.55
2023-04-22T13:24:59.506Z,6.90
2023-04-22T13:27:26.697Z,7.10
2023-04-22T13:29:53.991Z,6.70
2023-04-22T13:32:21.350Z,8.25
2023-04-22T13:34:48.646Z,7.13
2023-04-22T13:37:16.445Z,7.70
2023-04-22T13:39:43.751Z,6.82
2023-04-22T13:42:11.143Z,7.80
2023-04-22T13:44:38.548Z,6.97
2023-04-22T13:47:05.865Z,8.32
2023-04-22T13:49:33.350Z,8.18
2023-04-22T13:52:00.527Z,5.15
2023-04-22T13:54:28.154Z,6.78
2023-04-22T13:56:55.478Z,6.10
2023-04-22T13:59:22.645Z,6.60
2023-04-22T14:01:49.848Z,5.10
2023-04-22T14:04:17.260Z,5.82
2023-04-22T14:06:44.434Z,6.20
2023-04-22T14:09:11.872Z,7.53
2023-04-22T14:11:39.076Z,7.25
2023-04-22T14:14:07.666Z,7.45
2023-04-22T14:16:34.793Z,7.13
2023-04-22T14:19:02.934Z,6.95
2023-04-22T14:21:31.174Z,6.80
2023-04-22T14:23:58.580Z,6.18
2023-04-22T14:26:25.855Z,5.15
2023-04-22T14:28:53.166Z,6.45
2023-04-22T14:31:20.362Z,6.82
2023-04-22T14:33:47.766Z,8.57
2023-04-22T14:36:16.138Z,7.78
2023-04-22T14:38:43.504Z,9.55
2023-04-22T14:41:11.230Z,7.53
2023-04-22T14:43:38.527Z,5.93
2023-04-22T14:46:05.734Z,5.13
2023-04-22T14:48:35.525Z,8.57
2023-04-22T14:51:03.084Z,6.50
2023-04-22T14:53:30.374Z,6.55
2023-04-22T14:55:57.607Z,8.57
2023-04-22T14:58:27.075Z,5.97
2023-04-22T15:00:54.303Z,6.68
2023-04-22T15:03:21.707Z,5.43
2023-04-22T15:05:49.435Z,7.22
2023-04-22T15:08:16.724Z,7.32
2023-04-22T15:10:44.035Z,7.10
2023-04-22T15:13:11.263Z,5.20
2023-04-22T15:15:38.554Z,5.75
2023-04-22T15:18:06.127Z,7.03
2023-04-22T15:20:33.369Z,5.85
2023-04-22T15:23:01.559Z,7.43
2023-04-22T15:25:28.983Z,4.63
2023-04-22T15:27:57.325Z,5.50
2023-04-22T15:30:25.074Z,4.25
2023-04-22T15:32:52.483Z,5.38
2023-04-22T15:35:21.476Z,8.32
2023-04-22T15:37:48.782Z,7.53
2023-04-22T15:40:16.571Z,6.05
2023-04-22T15:42:43.902Z,6.07
2023-04-22T15:45:11.420Z,5.30
2023-04-22T15:47:40.761Z,5.13
2023-04-22T15:50:09.728Z,9.13
2023-04-22T15:52:38.676Z,6.40
2023-04-22T15:55:07.795Z,6.35
2023-04-22T15:57:35.698Z,8.57
2023-04-22T16:00:11.960Z,8.40
2023-04-22T16:02:42.597Z,7.28
2023-04-22T16:05:11.566Z,5.50
2023-04-22T16:07:39.346Z,6.32
2023-04-22T16:10:07.741Z,7.43
2023-04-22T16:12:35.013Z,9.00
2023-04-22T16:15:02.362Z,9.18
2023-04-22T16:17:30.544Z,5.38
2023-04-22T16:19:57.756Z,7.00
2023-04-22T16:22:24.994Z,6.65
2023-04-22T16:24:52.284Z,6.22
2023-04-22T16:27:19.495Z,4.43
2023-04-22T16:29:46.926Z,7.22
2023-04-22T16:32:14.360Z,6.68
2023-04-22T16:34:41.870Z,6.00
2023-04-22T16:37:09.074Z,6.93
2023-04-22T16:39:36.230Z,9.13
2023-04-22T16:42:03.484Z,7.15
2023-04-22T16:44:30.782Z,5.20
2023-04-22T16:46:58.105Z,6.38
2023-04-22T16:49:25.585Z,6.32
2023-04-22T16:51:52.994Z,8.10
2023-04-22T16:54:20.215Z,10.77
2023-04-22T16:56:47.454Z,8.88
2023-04-22T16:59:14.836Z,7.85
2023-04-22T17:01:42.234Z,9.85
2023-04-22T17:04:09.541Z,9.50
2023-04-22T17:06:39.605Z,8.57
2023-04-22T17:09:07.636Z,9.73
2023-04-22T17:11:34.766Z,5.68
2023-04-22T17:14:02.058Z,7.88
2023-04-22T17:16:29.629Z,9.25
2023-04-22T17:18:56.899Z,9.27
2023-04-22T17:21:24.366Z,7.97
2023-04-22T17:23:51.757Z,6.97
2023-04-22T17:26:19.051Z,7.70
2023-04-22T17:28:46.397Z,9.70
2023-04-22T17:31:13.639Z,10.05
2023-04-22T17:33:41.284Z,7.30
2023-04-22T17:36:08.499Z,11.75
2023-04-22T17:38:36.198Z,8.45
2023-04-22T17:41:03.637Z,11.38
2023-04-22T17:43:30.928Z,8.48
2023-04-22T17:45:58.159Z,8.50
2023-04-22T17:48:25.628Z,9.68
2023-04-22T17:50:53.137Z,8.77
2023-04-22T17:53:20.578Z,10.20
2023-04-22T17:55:48.062Z,9.80
2023-04-22T17:58:15.497Z,9.52
2023-04-22T18:00:42.919Z,8.52
2023-04-22T18:03:10.391Z,8.85
2023-04-22T18:05:43.294Z,8.48
2023-04-22T18:08:11.095Z,12.93
2023-04-22T18:10:38.986Z,11.45
2023-04-22T18:13:06.961Z,12.25
2023-04-22T18:15:34.208Z,7.07
2023-04-22T18:18:01.575Z,8.90
2023-04-22T18:20:28.930Z,10.38
2023-04-22T18:22:56.718Z,7.93
2023-04-22T18:25:24.656Z,8.20
2023-04-22T18:27:55.202Z,10.95
2023-04-22T18:30:23.826Z,7.30
2023-04-22T18:32:51.811Z,7.63
2023-04-22T18:35:20.282Z,9.95
2023-04-22T18:37:48.049Z,10.63
2023-04-22T18:40:15.287Z,9.98
2023-04-22T18:42:44.943Z,12.88
2023-04-22T18:45:12.819Z,13.68
2023-04-22T18:47:40.072Z,9.25
2023-04-22T18:50:07.846Z,10.35
2023-04-22T18:52:35.171Z,8.35
2023-04-22T18:55:02.703Z,6.80
2023-04-22T18:57:29.835Z,8.90
2023-04-22T18:59:57.144Z,9.23
2023-04-22T19:02:24.398Z,8.68
2023-04-22T19:04:54.244Z,7.80
2023-04-22T19:07:21.679Z,8.82
2023-04-22T19:09:49.122Z,9.80
2023-04-22T19:12:16.721Z,9.65
2023-04-22T19:14:44.313Z,11.25
2023-04-22T19:17:11.524Z,7.35
2023-04-22T19:19:39.330Z,8.85
2023-04-22T19:22:06.989Z,9.45
2023-04-22T19:24:35.414Z,7.32
2023-04-22T19:27:02.948Z,8.63
2023-04-22T19:29:30.424Z,10.45
2023-04-22T19:31:58.849Z,8.35
2023-04-22T19:34:27.395Z,6.25
2023-04-22T19:36:54.946Z,8.15
2023-04-22T19:39:22.155Z,9.25
2023-04-22T19:41:49.378Z,11.02
2023-04-22T19:44:17.105Z,7.90
2023-04-22T19:46:44.252Z,6.40
2023-04-22T19:49:11.944Z,8.98
2023-04-22T19:51:41.163Z,7.07
2023-04-22T19:54:11.075Z,10.43
2023-04-22T19:56:39.066Z,9.68
2023-04-22T19:59:07.171Z,7.63
2023-04-22T20:01:35.319Z,7.90
2023-04-22T20:04:04.187Z,6.63
2023-04-22T20:06:33.902Z,11.43
2023-04-22T20:09:05.229Z,5.30
2023-04-22T20:11:32.987Z,8.52
2023-04-22T20:14:01.100Z,10.93
2023-04-22T20:16:28.682Z,7.43
2023-04-22T20:18:55.952Z,9.07
2023-04-22T20:21:23.975Z,9.13
2023-04-22T20:23:54.255Z,9.98
2023-04-22T20:26:21.770Z,11.15
2023-04-22T20:28:52.198Z,9.13
2023-04-22T20:31:22.344Z,9.57
2023-04-22T20:33:51.165Z,10.30
2023-04-22T20:36:20.274Z,12.65
2023-04-22T20:38:51.080Z,9.13
2023-04-22T20:41:19.018Z,8.43
2023-04-22T20:43:47.460Z,7.40
2023-04-22T20:46:14.702Z,10.18
2023-04-22T20:48:42.729Z,7.60
2023-04-22T20:51:10.036Z,9.93
2023-04-22T20:53:38.395Z,7.75
2023-04-22T20:56:07.509Z,9.95
2023-04-22T20:58:34.679Z,10.43
2023-04-22T21:01:02.031Z,8.75
2023-04-22T21:03:30.887Z,7.60
2023-04-22T21:06:00.009Z,7.10
2023-04-22T21:08:27.554Z,8.38
2023-04-22T21:10:56.543Z,8.65
2023-04-22T21:13:24.367Z,9.43
2023-04-22T21:16:02.060Z,9.15
2023-04-22T21:18:32.464Z,8.95
2023-04-22T21:21:04.024Z,8.73
2023-04-22T21:23:31.657Z,11.63
2023-04-22T21:26:01.806Z,9.75
2023-04-22T21:28:29.870Z,15.43
2023-04-22T21:30:57.376Z,11.18
2023-04-22T21:33:25.554Z,9.25
2023-04-22T21:35:53.042Z,9.63
2023-04-22T21:38:20.306Z,12.02
2023-04-22T21:40:48.955Z,9.25
2023-04-22T21:43:16.260Z,10.93
2023-04-22T21:45:43.416Z,11.70
2023-04-22T21:48:10.753Z,10.93
2023-04-22T21:50:37.951Z,15.40
2023-04-22T21:53:05.479Z,13.52
2023-04-22T21:55:32.763Z,13.63
2023-04-22T21:57:59.931Z,8.98
2023-04-22T22:00:27.124Z,11.18
2023-04-22T22:02:54.636Z,9.90
2023-04-22T22:05:22.048Z,9.10
2023-04-22T22:07:49.329Z,9.70
2023-04-22T22:10:19.352Z,9.27
2023-04-22T22:12:47.503Z,10.40
2023-04-22T22:15:16.336Z,10.00
2023-04-22T22:17:44.415Z,9.13
2023-04-22T22:20:16.865Z,9.02
2023-04-22T22:22:45.085Z,12.30
2023-04-22T22:25:15.679Z,9.98
2023-04-22T22:27:47.214Z,8.88
2023-04-22T22:30:16.781Z,9.63
2023-04-22T22:32:44.209Z,12.10
2023-04-22T22:35:11.788Z,7.07
2023-04-22T22:37:39.137Z,9.43
2023-04-22T22:40:07.262Z,8.00
2023-04-22T22:42:34.698Z,9.98
2023-04-22T22:45:02.110Z,10.05
2023-04-22T22:47:29.496Z,10.35
2023-04-22T22:49:57.230Z,9.70
2023-04-22T22:52:24.796Z,9.00
2023-04-22T22:54:52.512Z,10.38
2023-04-22T22:57:19.884Z,13.73
2023-04-22T22:59:47.219Z,11.98
2023-04-22T23:02:14.544Z,12.45
2023-04-22T23:04:42.350Z,9.95
2023-04-22T23:07:09.811Z,10.50
2023-04-22T23:09:37.215Z,8.40
2023-04-22T23:12:05.760Z,6.68
2023-04-22T23:14:33.530Z,9.82
2023-04-22T23:17:00.951Z,9.23
2023-04-22T23:19:29.410Z,8.95
2023-04-22T23:21:57.435Z,10.25
2023-04-22T23:24:25.132Z,10.75
2023-04-22T23:26:52.750Z,9.23
2023-04-22T23:29:20.642Z,8.65
2023-04-22T23:31:50.553Z,7.18
2023-04-22T23:34:21.972Z,10.15
2023-04-22T23:36:50.602Z,6.53
2023-04-22T23:39:17.904Z,9.52
2023-04-22T23:41:45.533Z,8.13
2023-04-22T23:44:12.804Z,8.73
2023-04-22T23:46:41.236Z,10.55
2023-04-22T23:49:08.661Z,12.38
2023-04-22T23:51:36.032Z,10.20
2023-04-22T23:54:03.499Z,9.98
2023-04-22T23:56:31.475Z,8.15
2023-04-22T23:58:58.957Z,9.57
